Time;durP1;ratioP1;P1;durP2;ratioP2;P2;SDS_P1;SDS_P2;PMS_P1;PMS_P2;Temp;Humidity;BMP_temperature;BMP_pressure;BME280_temperature;BME280_humidity;BME280_pressure;Samples;Min_cycle;Max_cycle;Signal;HPM_P1;HPM_P2
2022/10/27 00:00:07;;;;;;;12.02;4.60;;;14.40;99.90;;;;;;5106296;28;20036;-93
2022/10/27 00:02:34;;;;;;;14.20;4.55;;;14.40;99.90;;;;;;5082815;28;20040;-90
2022/10/27 00:04:59;;;;;;;16.00;4.43;;;14.40;99.90;;;;;;5096516;28;20077;-91
2022/10/27 00:07:25;;;;;;;12.57;4.35;;;14.40;99.90;;;;;;5095493;28;20043;-91
2022/10/27 00:09:50;;;;;;;12.18;4.20;;;14.40;99.90;;;;;;5104937;28;20043;-91
2022/10/27 00:12:16;;;;;;;11.02;4.05;;;14.40;99.90;;;;;;5116156;28;20069;-91
2022/10/27 00:14:41;;;;;;;11.35;4.35;;;14.30;99.90;;;;;;5115038;28;20046;-91
2022/10/27 00:17:07;;;;;;;11.40;4.50;;;14.50;99.90;;;;;;5105030;28;20047;-91
2022/10/27 00:19:33;;;;;;;12.27;4.28;;;14.40;99.90;;;;;;5095216;28;20039;-91
2022/10/27 00:21:59;;;;;;;10.55;4.20;;;14.40;99.90;;;;;;5095175;28;20040;-91
2022/10/27 00:24:24;;;;;;;14.90;4.20;;;14.40;99.90;;;;;;5077515;28;20077;-91
2022/10/27 00:26:50;;;;;;;13.43;4.60;;;14.40;99.90;;;;;;5108309;28;20038;-92
2022/10/27 00:29:16;;;;;;;16.58;4.72;;;14.30;99.90;;;;;;5116141;28;20047;-91
2022/10/27 00:31:41;;;;;;;11.68;4.15;;;14.30;99.90;;;;;;5102122;28;20047;-91
2022/10/27 00:34:07;;;;;;;12.55;4.00;;;14.20;99.90;;;;;;5093974;28;20044;-91
2022/10/27 00:36:32;;;;;;;11.73;4.30;;;14.20;99.90;;;;;;5094906;28;20048;-90
2022/10/27 00:38:58;;;;;;;10.50;4.63;;;14.20;99.90;;;;;;5094470;28;20462;-91
2022/10/27 00:41:33;;;;;;;10.95;5.25;;;14.20;99.90;;;;;;5105469;28;20122;-91
2022/10/27 00:44:02;;;;;;;12.20;5.15;;;14.20;99.90;;;;;;5112551;28;20504;-91
2022/10/27 00:46:40;;;;;;;15.15;5.57;;;14.20;99.90;;;;;;5097816;28;20044;-91
2022/10/27 00:49:09;;;;;;;14.75;5.30;;;14.20;99.90;;;;;;5089240;28;20035;-91
2022/10/27 00:51:44;;;;;;;13.82;5.50;;;14.20;99.90;;;;;;5077094;28;20437;-91
2022/10/27 00:54:11;;;;;;;13.27;5.53;;;14.20;99.90;;;;;;5079653;28;20039;-91
2022/10/27 00:56:38;;;;;;;14.00;5.93;;;14.20;99.90;;;;;;5114963;28;20088;-91
2022/10/27 00:59:04;;;;;;;14.00;5.85;;;14.30;99.90;;;;;;5092773;28;20369;-92
2022/10/27 01:01:30;;;;;;;16.67;5.50;;;14.30;99.90;;;;;;5094237;28;20051;-91
2022/10/27 01:03:56;;;;;;;14.57;6.40;;;14.30;99.90;;;;;;5094189;28;20405;-90
2022/10/27 01:06:23;;;;;;;14.43;5.95;;;14.50;99.90;;;;;;5076493;28;20040;-90
2022/10/27 01:08:50;;;;;;;14.07;6.45;;;14.20;99.90;;;;;;5107096;28;20408;-90
2022/10/27 01:11:16;;;;;;;14.07;6.22;;;15.20;99.90;;;;;;5114814;28;20443;-91
2022/10/27 01:13:42;;;;;;;13.73;6.13;;;14.20;99.90;;;;;;5079722;28;20093;-90
2022/10/27 01:16:38;;;;;;;13.70;5.82;;;14.20;99.90;;;;;;5082323;28;20059;-91
2022/10/27 01:19:31;;;;;;;17.88;6.22;;;14.30;99.90;;;;;;5093876;28;20496;-91
2022/10/27 01:22:20;;;;;;;16.20;6.05;;;14.30;99.90;;;;;;5102109;28;20373;-92
2022/10/27 01:24:51;;;;;;;13.38;6.55;;;14.30;99.90;;;;;;5087756;28;20055;-92
2022/10/27 01:27:23;;;;;;;15.55;6.55;;;14.30;99.90;;;;;;5095551;28;20075;-91
2022/10/27 01:30:26;;;;;;;11.60;6.28;;;15.20;99.90;;;;;;5095895;28;20044;-91
2022/10/27 01:33:04;;;;;;;17.80;7.30;;;14.40;99.90;;;;;;5094777;28;20066;-91
2022/10/27 01:35:53;;;;;;;12.98;5.75;;;14.30;99.90;;;;;;5079993;28;20044;-91
2022/10/27 01:38:31;;;;;;;12.85;6.90;;;14.40;99.90;;;;;;5118824;28;21241;-91
2022/10/27 01:41:00;;;;;;;15.38;6.78;;;14.40;99.90;;;;;;5118293;28;20044;-92
2022/10/27 01:43:28;;;;;;;17.85;6.82;;;14.40;99.90;;;;;;5118100;28;20051;-90
2022/10/27 01:45:55;;;;;;;18.98;6.50;;;14.80;99.90;;;;;;5100921;28;20054;-91
2022/10/27 01:48:21;;;;;;;16.45;6.15;;;14.40;99.90;;;;;;5082070;28;20512;-90
2022/10/27 01:50:47;;;;;;;14.82;7.57;;;14.40;99.90;;;;;;5118901;28;20086;-90
2022/10/27 01:53:13;;;;;;;14.77;7.10;;;14.40;99.90;;;;;;5101550;28;20039;-91
2022/10/27 01:56:08;;;;;;;14.93;7.32;;;14.40;99.90;;;;;;5118876;28;20062;-92
2022/10/27 01:59:07;;;;;;;19.38;7.95;;;14.30;99.90;;;;;;5079272;28;20048;-91
2022/10/27 02:01:50;;;;;;;16.80;7.82;;;14.20;99.90;;;;;;5118591;28;20358;-91
2022/10/27 02:04:33;;;;;;;12.57;7.50;;;14.20;99.90;;;;;;5100040;28;20065;-90
2022/10/27 02:07:33;;;;;;;18.15;6.70;;;14.20;99.90;;;;;;5117376;28;20075;-90
2022/10/27 02:10:08;;;;;;;14.23;7.78;;;14.10;99.90;;;;;;5094688;28;20435;-91
2022/10/27 02:12:36;;;;;;;16.75;8.30;;;14.10;99.90;;;;;;5097253;28;20449;-91
2022/10/27 02:15:07;;;;;;;16.55;8.02;;;14.10;99.90;;;;;;5096965;28;20040;-91
2022/10/27 02:17:37;;;;;;;15.45;8.35;;;14.10;99.90;;;;;;5089313;28;20039;-92
2022/10/27 02:20:09;;;;;;;19.45;8.25;;;14.70;99.90;;;;;;5098014;28;20067;-92
2022/10/27 02:22:37;;;;;;;15.57;8.55;;;14.10;99.90;;;;;;5108908;28;20047;-91
2022/10/27 02:25:03;;;;;;;16.35;8.20;;;14.80;99.90;;;;;;5078177;28;20051;-91
2022/10/27 02:27:44;;;;;;;16.48;8.00;;;14.20;99.90;;;;;;5108549;28;20112;-91
2022/10/27 02:30:10;;;;;;;15.35;7.97;;;14.10;99.90;;;;;;5084820;28;20056;-92
2022/10/27 02:32:36;;;;;;;21.88;8.43;;;14.20;99.90;;;;;;5103447;28;20165;-91
2022/10/27 02:35:04;;;;;;;13.85;8.15;;;14.20;99.90;;;;;;5097212;28;20070;-91
2022/10/27 02:37:37;;;;;;;14.13;8.18;;;14.20;99.90;;;;;;5096269;28;20044;-91
2022/10/27 02:40:04;;;;;;;14.82;8.80;;;14.20;99.90;;;;;;5097152;28;20062;-91
2022/10/27 02:42:32;;;;;;;15.50;8.43;;;14.20;99.90;;;;;;5094808;28;20058;-91
2022/10/27 02:44:57;;;;;;;17.65;8.77;;;14.20;99.90;;;;;;5097941;28;20044;-91
2022/10/27 02:47:23;;;;;;;16.35;7.90;;;14.20;99.90;;;;;;5113119;28;20039;-91
2022/10/27 02:49:49;;;;;;;12.38;7.97;;;14.10;99.90;;;;;;5082525;28;20040;-91
2022/10/27 02:52:15;;;;;;;14.57;8.35;;;14.20;99.90;;;;;;5113470;28;20040;-91
2022/10/27 02:54:46;;;;;;;16.42;8.20;;;14.20;99.90;;;;;;5098936;28;20143;-91
2022/10/27 02:57:14;;;;;;;16.60;8.50;;;14.90;99.90;;;;;;5116408;28;20048;-91
2022/10/27 02:59:39;;;;;;;14.25;8.00;;;14.20;99.90;;;;;;5067884;28;20396;-91
2022/10/27 03:02:06;;;;;;;16.42;8.32;;;14.20;99.90;;;;;;5093943;28;20127;-91
2022/10/27 03:04:32;;;;;;;19.75;8.00;;;14.10;99.90;;;;;;5096774;28;20086;-91
2022/10/27 03:06:57;;;;;;;15.70;8.00;;;14.40;99.90;;;;;;5096605;28;20036;-91
2022/10/27 03:09:23;;;;;;;16.02;8.65;;;14.20;99.90;;;;;;5096445;28;20043;-91
2022/10/27 03:11:49;;;;;;;15.82;8.25;;;14.20;99.90;;;;;;5115019;28;20038;-91
2022/10/27 03:14:14;;;;;;;15.38;8.63;;;14.20;99.90;;;;;;5100598;28;20044;-91
2022/10/27 03:16:40;;;;;;;14.88;8.23;;;14.20;99.90;;;;;;5063108;28;20437;-91
2022/10/27 03:19:05;;;;;;;14.38;8.77;;;14.20;99.90;;;;;;5087560;28;20077;-90
2022/10/27 03:21:31;;;;;;;12.48;8.15;;;14.20;99.90;;;;;;5096057;28;20036;-90
2022/10/27 03:23:57;;;;;;;17.70;8.20;;;14.20;99.90;;;;;;5096050;28;20036;-91
2022/10/27 03:26:22;;;;;;;15.75;8.05;;;14.20;99.90;;;;;;5096024;28;20036;-92
2022/10/27 03:28:48;;;;;;;18.20;9.02;;;14.60;99.90;;;;;;5079858;28;20036;-92
2022/10/27 03:31:14;;;;;;;19.15;8.30;;;15.20;99.90;;;;;;5096128;28;20044;-92
2022/10/27 03:33:39;;;;;;;17.83;8.73;;;14.60;99.90;;;;;;5095154;28;20542;-91
2022/10/27 03:36:05;;;;;;;15.48;8.75;;;14.10;99.90;;;;;;5101061;28;20040;-92
2022/10/27 03:38:31;;;;;;;19.08;8.18;;;14.10;99.90;;;;;;5116346;28;20048;-92
2022/10/27 03:40:56;;;;;;;15.90;8.35;;;15.20;99.90;;;;;;5116597;28;20108;-91
2022/10/27 03:43:22;;;;;;;15.48;8.32;;;14.10;99.90;;;;;;5098158;28;20040;-91
2022/10/27 03:45:48;;;;;;;14.50;8.23;;;14.40;99.90;;;;;;5116108;28;20048;-90
2022/10/27 03:48:14;;;;;;;14.45;8.73;;;14.80;99.90;;;;;;5095428;28;20123;-92
2022/10/27 03:50:45;;;;;;;16.52;8.88;;;15.00;99.90;;;;;;5095925;28;20063;-91
2022/10/27 03:53:11;;;;;;;17.40;8.88;;;14.10;99.90;;;;;;5096145;28;20124;-91
2022/10/27 03:55:36;;;;;;;15.40;8.55;;;14.70;99.90;;;;;;5063038;28;20083;-91
2022/10/27 03:58:02;;;;;;;18.92;8.95;;;14.00;99.90;;;;;;5078498;28;20082;-93
2022/10/27 04:00:30;;;;;;;18.83;9.02;;;14.00;99.90;;;;;;5077214;28;20130;-91
2022/10/27 04:02:56;;;;;;;14.13;8.15;;;15.00;99.90;;;;;;5095898;28;20048;-91
2022/10/27 04:05:22;;;;;;;14.80;8.43;;;14.00;99.90;;;;;;5062090;28;20062;-91
2022/10/27 04:07:47;;;;;;;16.27;9.30;;;15.20;99.90;;;;;;5096635;28;20052;-92
2022/10/27 04:10:16;;;;;;;15.38;8.77;;;14.00;99.90;;;;;;5078918;28;20085;-92
2022/10/27 04:12:55;;;;;;;17.42;9.40;;;14.00;99.90;;;;;;5095850;28;20051;-91
2022/10/27 04:15:23;;;;;;;15.07;9.10;;;14.00;99.90;;;;;;5101877;28;20416;-91
2022/10/27 04:17:55;;;;;;;15.25;8.63;;;14.10;99.90;;;;;;5115573;28;20032;-92
2022/10/27 04:20:20;;;;;;;15.30;10.25;;;14.20;99.90;;;;;;5088209;28;20040;-91
2022/10/27 04:22:46;;;;;;;17.88;9.18;;;14.00;99.90;;;;;;5096941;28;20051;-92
2022/10/27 04:25:12;;;;;;;16.98;9.48;;;14.00;99.90;;;;;;5112142;28;20080;-91
2022/10/27 04:27:37;;;;;;;14.50;9.10;;;14.00;99.90;;;;;;5095184;28;20384;-91
2022/10/27 04:30:04;;;;;;;16.35;9.48;;;14.40;99.90;;;;;;5070430;28;20056;-91
2022/10/27 04:32:29;;;;;;;18.75;10.45;;;14.00;99.90;;;;;;5096697;28;20064;-91
2022/10/27 04:34:55;;;;;;;17.60;9.88;;;14.40;99.90;;;;;;5112343;28;20047;-91
2022/10/27 04:37:21;;;;;;;21.58;10.50;;;13.90;99.90;;;;;;5096742;28;20091;-91
2022/10/27 04:39:46;;;;;;;17.83;10.10;;;13.90;99.90;;;;;;5113961;28;20112;-91
2022/10/27 04:42:12;;;;;;;15.88;9.95;;;13.90;99.90;;;;;;5060336;28;20043;-91
2022/10/27 04:44:37;;;;;;;16.42;10.00;;;15.20;99.90;;;;;;5060969;28;20163;-91
2022/10/27 04:47:03;;;;;;;21.73;10.60;;;14.50;99.90;;;;;;5113386;28;20139;-92
2022/10/27 04:49:29;;;;;;;17.67;10.80;;;13.90;99.90;;;;;;5112793;28;20501;-91
2022/10/27 04:51:55;;;;;;;15.20;10.52;;;15.00;99.90;;;;;;5096332;28;20097;-92
2022/10/27 04:54:21;;;;;;;18.08;11.13;;;13.90;99.90;;;;;;5094892;28;20040;-91
2022/10/27 04:56:46;;;;;;;17.05;10.63;;;13.90;99.90;;;;;;5096217;28;20047;-90
2022/10/27 04:59:12;;;;;;;17.98;10.65;;;14.30;99.90;;;;;;5093530;28;20093;-92
2022/10/27 05:01:38;;;;;;;19.15;11.20;;;13.90;99.90;;;;;;5095854;28;20042;-92
2022/10/27 05:04:04;;;;;;;20.08;11.32;;;14.20;99.90;;;;;;5102616;28;20032;-91
2022/10/27 05:06:29;;;;;;;16.38;10.55;;;13.90;99.90;;;;;;5097526;28;20032;-90
2022/10/27 05:08:55;;;;;;;19.08;10.75;;;13.80;99.90;;;;;;5102456;28;20523;-91
2022/10/27 05:11:22;;;;;;;17.00;10.88;;;14.90;99.90;;;;;;5114352;28;20488;-91
2022/10/27 05:13:50;;;;;;;19.85;10.75;;;13.80;99.90;;;;;;5115258;28;20075;-91
2022/10/27 05:16:17;;;;;;;17.77;10.32;;;14.10;99.90;;;;;;5115427;28;20063;-91
2022/10/27 05:18:43;;;;;;;17.48;10.05;;;13.80;99.90;;;;;;5108994;28;20111;-91
2022/10/27 05:21:09;;;;;;;23.08;10.60;;;14.80;99.90;;;;;;5078382;28;20068;-91
2022/10/27 05:23:34;;;;;;;15.93;10.50;;;14.60;99.90;;;;;;5093675;28;20047;-91
2022/10/27 05:26:00;;;;;;;21.40;10.95;;;15.10;99.90;;;;;;5094806;28;20074;-91
2022/10/27 05:28:26;;;;;;;18.13;10.50;;;13.80;99.90;;;;;;5077848;28;20090;-91
2022/10/27 05:30:57;;;;;;;17.77;11.02;;;13.80;99.90;;;;;;5080751;28;20127;-91
2022/10/27 05:33:23;;;;;;;20.23;10.30;;;13.80;99.90;;;;;;5110425;28;20031;-91
2022/10/27 05:35:49;;;;;;;17.75;10.20;;;13.80;99.90;;;;;;5106191;28;20478;-90
2022/10/27 05:38:15;;;;;;;18.77;9.93;;;14.20;99.90;;;;;;5096299;28;20071;-89
2022/10/27 05:40:41;;;;;;;18.48;10.38;;;14.10;99.90;;;;;;5095611;28;20054;-91
2022/10/27 05:43:08;;;;;;;19.75;10.77;;;14.80;99.90;;;;;;5113876;28;20044;-92
2022/10/27 05:45:33;;;;;;;14.93;9.88;;;13.70;99.90;;;;;;5114733;28;20095;-92
2022/10/27 05:48:04;;;;;;;17.98;10.52;;;13.80;99.90;;;;;;5118017;28;20111;-91
2022/10/27 05:50:31;;;;;;;16.55;10.15;;;13.80;99.90;;;;;;5076512;28;20055;-91
2022/10/27 05:52:57;;;;;;;16.33;9.82;;;14.00;99.90;;;;;;5115525;28;20048;-92
2022/10/27 05:55:23;;;;;;;16.55;10.15;;;13.80;99.90;;;;;;5115770;28;20036;-91
2022/10/27 05:57:54;;;;;;;18.40;10.27;;;13.10;99.90;;;;;;5115251;28;20043;-91
2022/10/27 06:00:22;;;;;;;17.98;10.57;;;13.80;99.90;;;;;;5115703;28;20047;-91
2022/10/27 06:02:48;;;;;;;15.13;10.35;;;13.90;99.90;;;;;;5098522;28;20369;-91
2022/10/27 06:05:14;;;;;;;15.77;10.88;;;13.80;99.90;;;;;;5115228;28;20051;-92
2022/10/27 06:07:39;;;;;;;23.65;10.82;;;13.90;99.90;;;;;;5102052;28;20083;-90
2022/10/27 06:10:05;;;;;;;17.52;10.48;;;13.80;99.90;;;;;;5084319;28;20078;-91
2022/10/27 06:12:31;;;;;;;17.75;10.77;;;13.80;99.90;;;;;;5077158;28;20044;-92
2022/10/27 06:14:57;;;;;;;17.00;11.02;;;14.00;99.90;;;;;;5076477;28;20043;-91
2022/10/27 06:17:22;;;;;;;16.30;11.13;;;13.80;99.90;;;;;;5096101;28;20044;-93
2022/10/27 06:19:48;;;;;;;16.00;10.73;;;14.40;99.90;;;;;;5096056;28;20040;-92
2022/10/27 06:22:14;;;;;;;17.23;11.75;;;13.90;99.90;;;;;;5080409;28;20525;-92
2022/10/27 06:24:39;;;;;;;18.45;11.35;;;14.00;99.90;;;;;;5082934;28;20054;-90
2022/10/27 06:27:05;;;;;;;17.30;11.40;;;13.80;99.90;;;;;;5081679;28;20112;-91
2022/10/27 06:29:30;;;;;;;19.13;11.43;;;13.80;99.90;;;;;;5066474;28;20047;-92
2022/10/27 06:31:56;;;;;;;17.95;11.23;;;14.20;99.90;;;;;;5099573;28;20047;-92
2022/10/27 06:34:22;;;;;;;18.85;12.02;;;13.80;99.90;;;;;;5081068;28;20044;-91
2022/10/27 06:36:47;;;;;;;19.77;11.77;;;14.70;99.90;;;;;;5064912;28;20079;-92
2022/10/27 06:39:13;;;;;;;18.23;11.57;;;13.80;99.90;;;;;;5099054;28;20048;-92
2022/10/27 06:41:39;;;;;;;17.35;11.95;;;13.80;99.90;;;;;;5088953;28;20044;-91
2022/10/27 06:44:04;;;;;;;17.25;11.93;;;13.80;99.90;;;;;;5099575;28;20032;-92
2022/10/27 06:46:30;;;;;;;15.88;12.07;;;13.90;99.90;;;;;;5099572;28;20043;-92
2022/10/27 06:48:55;;;;;;;19.73;12.05;;;13.90;99.90;;;;;;5099948;28;20040;-92
2022/10/27 06:51:22;;;;;;;18.20;11.32;;;13.90;99.90;;;;;;5100307;28;20119;-92
2022/10/27 06:53:48;;;;;;;20.45;10.70;;;13.90;99.90;;;;;;5110753;28;20050;-92
2022/10/27 06:56:13;;;;;;;19.23;11.15;;;14.00;99.90;;;;;;5104270;28;20047;-91
2022/10/27 06:58:39;;;;;;;17.17;11.10;;;14.00;99.90;;;;;;5103047;28;20093;-92
2022/10/27 07:01:05;;;;;;;18.27;11.55;;;14.10;99.90;;;;;;5104339;28;20491;-92
2022/10/27 07:03:34;;;;;;;19.25;11.50;;;14.10;99.90;;;;;;5120850;28;20039;-92
2022/10/27 07:06:01;;;;;;;18.10;10.60;;;14.10;99.90;;;;;;5103863;28;20043;-91
2022/10/27 07:08:26;;;;;;;15.45;10.60;;;14.20;99.90;;;;;;5100197;28;20043;-92
2022/10/27 07:10:53;;;;;;;19.00;10.57;;;15.40;99.90;;;;;;5102160;28;20131;-92
2022/10/27 07:13:20;;;;;;;19.10;11.07;;;14.40;99.90;;;;;;5119029;28;20039;-91
2022/10/27 07:15:45;;;;;;;15.07;10.10;;;14.30;99.90;;;;;;5097911;28;20127;-91
2022/10/27 07:18:11;;;;;;;15.35;10.38;;;14.30;99.90;;;;;;5080321;28;20433;-91
2022/10/27 07:20:38;;;;;;;17.85;10.48;;;14.30;99.90;;;;;;5098549;28;20480;-91
2022/10/27 07:23:05;;;;;;;17.75;10.07;;;14.30;99.90;;;;;;5082135;28;20055;-88
2022/10/27 07:25:32;;;;;;;15.00;9.60;;;14.60;99.90;;;;;;5108978;28;20519;-88
2022/10/27 07:27:58;;;;;;;16.55;9.57;;;14.50;99.90;;;;;;5099606;28;20460;-91
2022/10/27 07:30:31;;;;;;;14.95;9.20;;;14.50;99.90;;;;;;5118754;28;20118;-92
2022/10/27 07:32:57;;;;;;;13.65;9.10;;;14.80;99.90;;;;;;5099610;28;20507;-92
2022/10/27 07:35:24;;;;;;;12.35;8.63;;;14.60;99.90;;;;;;5094070;28;20129;-91
2022/10/27 07:37:50;;;;;;;13.48;8.52;;;14.70;99.90;;;;;;5080279;28;20174;-92
2022/10/27 07:40:17;;;;;;;15.65;8.98;;;14.80;99.90;;;;;;5063031;28;20079;-92
2022/10/27 07:42:47;;;;;;;12.23;8.55;;;15.00;99.90;;;;;;5063319;28;20043;-92
2022/10/27 07:45:14;;;;;;;18.52;8.30;;;14.90;99.90;;;;;;5098581;28;20127;-91
2022/10/27 07:47:44;;;;;;;13.57;8.63;;;15.00;99.90;;;;;;5080011;28;20109;-91
2022/10/27 07:50:10;;;;;;;13.10;7.90;;;15.00;99.90;;;;;;5115691;28;20036;-92
2022/10/27 07:52:46;;;;;;;12.25;7.70;;;15.30;99.90;;;;;;5117656;28;20058;-93
2022/10/27 07:55:13;;;;;;;13.82;8.07;;;15.40;99.90;;;;;;5097188;28;20373;-93
2022/10/27 07:57:40;;;;;;;12.98;8.15;;;15.30;99.90;;;;;;5088597;28;20036;-93
2022/10/27 08:00:08;;;;;;;12.40;7.43;;;15.60;99.90;;;;;;5079092;28;20435;-92
2022/10/27 08:02:34;;;;;;;12.57;7.13;;;15.50;99.90;;;;;;5097978;28;20123;-93
2022/10/27 08:05:00;;;;;;;14.25;7.97;;;16.30;99.90;;;;;;5080303;28;20079;-92
2022/10/27 08:07:26;;;;;;;11.95;7.03;;;;;;;;;;5097745;28;20381;-90
2022/10/27 08:09:52;;;;;;;10.23;5.90;;;;;;;;;;5079318;28;20063;-88
2022/10/27 08:12:18;;;;;;;13.77;6.97;;;;;;;;;;5062304;28;20044;-86
2022/10/27 08:14:44;;;;;;;12.70;6.05;;;;;;;;;;5079199;28;20062;-87
2022/10/27 08:17:10;;;;;;;11.52;6.25;;;;;;;;;;5085234;28;20059;-83
2022/10/27 08:19:36;;;;;;;12.68;6.82;;;;;;;;;;5113014;28;20054;-88
2022/10/27 08:22:02;;;;;;;9.98;6.25;;;;;;;;;;5096528;28;20044;-88
2022/10/27 08:24:28;;;;;;;10.50;6.07;;;;;;;;;;5079410;28;20084;-91
2022/10/27 08:26:54;;;;;;;14.05;5.97;;;;;;;;;;5096892;28;20066;-89
2022/10/27 08:29:20;;;;;;;13.77;6.28;;;;;;;;;;5060711;28;20126;-87
2022/10/27 08:31:46;;;;;;;12.02;6.15;;;;;;;;;;5061456;28;20475;-86
2022/10/27 08:34:12;;;;;;;13.45;6.82;;;;;;;;;;5077252;28;20127;-86
2022/10/27 08:36:38;;;;;;;11.85;5.95;;;;;;;;;;5077102;28;20056;-87
2022/10/27 08:39:11;;;;;;;12.00;5.45;;;;;;;;;;5075303;28;20060;-87
2022/10/27 08:41:39;;;;;;;15.70;6.00;;;;;;;;;;5060651;28;20079;-86
2022/10/27 08:44:10;;;;;;;13.93;5.70;;;;;;;;;;5063742;28;20380;-83
2022/10/27 08:46:49;;;;;;;11.20;5.60;;;;;;;;;;5079561;28;20053;-83
2022/10/27 08:49:30;;;;;;;8.90;4.80;;;;;;;;;;5095398;28;20093;-87
2022/10/27 08:51:59;;;;;;;10.63;5.20;;;;;;;;;;5079440;28;20039;-87
2022/10/27 08:54:26;;;;;;;9.45;4.78;;;;;;;;;;5075744;28;20122;-87
2022/10/27 08:56:54;;;;;;;9.25;4.68;;;;;;;;;;5068120;28;20043;-87
2022/10/27 08:59:22;;;;;;;11.73;4.25;;;;;;;;;;5068155;28;20065;-91
2022/10/27 09:01:55;;;;;;;9.23;4.03;;;;;;;;;;5084053;28;20036;-90
2022/10/27 09:04:43;;;;;;;7.63;4.30;;;;;;;;;;5096164;28;20140;-88
2022/10/27 09:07:12;;;;;;;8.20;3.88;;;;;;;;;;5060137;28;20055;-88
2022/10/27 09:09:41;;;;;;;8.75;3.67;;;;;;;;;;5061434;28;20039;-88
2022/10/27 09:12:26;;;;;;;10.32;3.88;;;;;;;;;;5080418;28;20044;-87
2022/10/27 09:14:52;;;;;;;6.50;3.60;;;;;;;;;;5065551;28;20044;-89
2022/10/27 09:17:27;;;;;;;13.77;3.85;;;;;;;;;;5078234;28;20101;-91
2022/10/27 09:19:53;;;;;;;;;;;;;;;;;;5064232;28;20391;-92
2022/10/27 09:22:20;;;;;;;8.10;3.35;;;;;;;;;;5061645;28;19920;-91
2022/10/27 09:24:56;;;;;;;10.85;3.58;;;;;;;;;;5061175;28;20043;-91
2022/10/27 09:27:23;;;;;;;7.60;3.38;;;;;;;;;;5061625;28;20047;-92
2022/10/27 09:29:50;;;;;;;8.38;3.20;;;;;;;;;;5078286;28;20481;-91
2022/10/27 09:32:26;;;;;;;9.45;3.63;;;;;;;;;;5061683;28;20044;-91
2022/10/27 09:34:55;;;;;;;9.40;3.33;;;;;;;;;;5060040;28;20039;-91
2022/10/27 09:37:21;;;;;;;6.38;3.10;;;;;;;;;;5062304;28;20044;-90
2022/10/27 09:39:49;;;;;;;9.02;3.33;;;;;;;;;;5065865;28;20044;-90
2022/10/27 09:42:15;;;;;;;10.70;3.85;;;;;;;;;;5077092;28;20104;-91
2022/10/27 09:44:47;;;;;;;10.32;3.42;;;;;;;;;;5079564;28;20084;-90
2022/10/27 09:47:13;;;;;;;14.50;7.82;;;;;;;;;;5077842;28;20096;-90
2022/10/27 09:49:41;;;;;;;7.15;3.55;;;;;;;;;;5071085;28;20489;-89
2022/10/27 09:52:12;;;;;;;9.23;3.40;;;;;;;;;;5060387;28;20047;-90
2022/10/27 09:54:41;;;;;;;8.20;3.38;;;;;;;;;;5058272;28;20040;-90
2022/10/27 09:57:10;;;;;;;6.80;3.40;;;;;;;;;;5083681;28;20224;-92
2022/10/27 09:59:37;;;;;;;7.35;3.35;;;;;;;;;;5085992;28;20071;-91
2022/10/27 10:02:04;;;;;;;7.35;3.33;;;;;;;;;;5067074;28;20036;-91
2022/10/27 10:04:44;;;;;;;8.32;3.25;;;;;;;;;;5065229;28;20076;-90
2022/10/27 10:07:28;;;;;;;6.45;3.20;;;;;;;;;;5061155;28;20409;-91
2022/10/27 10:10:13;;;;;;;6.90;2.90;;;;;;;;;;5077642;28;20494;-91
2022/10/27 10:12:39;;;;;;;7.97;3.40;;;;;;;;;;5077260;28;20051;-91
2022/10/27 10:15:11;;;;;;;8.77;3.20;;;;;;;;;;5062047;28;20310;-91
2022/10/27 10:17:39;;;;;;;7.00;2.80;;;;;;;;;;5063685;28;20076;-90
2022/10/27 10:20:06;;;;;;;6.20;3.03;;;;;;;;;;5086097;28;20036;-89
2022/10/27 10:22:34;;;;;;;6.57;3.10;;;;;;;;;;5082623;28;20071;-90
2022/10/27 10:25:06;;;;;;;7.35;2.88;;;;;;;;;;5100505;28;20100;-91
2022/10/27 10:27:33;;;;;;;13.50;3.17;;;;;;;;;;5099277;28;20040;-91
2022/10/27 10:30:01;;;;;;;7.13;3.10;;;;;;;;;;5099260;28;20135;-92
2022/10/27 10:32:28;;;;;;;6.25;2.92;;;;;;;;;;5099845;28;20044;-90
2022/10/27 10:34:55;;;;;;;7.75;2.80;;;;;;;;;;5098846;28;20081;-90
2022/10/27 10:37:32;;;;;;;7.05;2.70;;;;;;;;;;5096332;28;20075;-90
2022/10/27 10:40:15;;;;;;;7.32;2.67;;;;;;;;;;5076822;28;20048;-90
2022/10/27 10:42:59;;;;;;;8.68;2.70;;;;;;;;;;5076990;28;20066;-91
2022/10/27 10:45:25;;;;;;;7.45;2.55;;;;;;;;;;5075894;28;20472;-90
2022/10/27 10:47:56;;;;;;;5.03;2.55;;;;;;;;;;5078205;28;20408;-91
2022/10/27 10:50:23;;;;;;;7.72;2.78;;;;;;;;;;5095504;28;20056;-90
2022/10/27 10:52:51;;;;;;;8.40;2.53;;;;;;;;;;5079643;28;20096;-90
2022/10/27 10:55:20;;;;;;;7.80;2.30;;;;;;;;;;5077892;28;20048;-91
2022/10/27 10:57:47;;;;;;;4.47;1.90;;;;;;;;;;5078085;28;20045;-90
2022/10/27 11:00:15;;;;;;;7.32;2.17;;;;;;;;;;5078488;28;20040;-91
2022/10/27 11:02:41;;;;;;;6.97;2.33;;;;;;;;;;5078196;28;20055;-91
2022/10/27 11:05:17;;;;;;;6.03;2.30;;;;;;;;;;5094783;28;20438;-88
2022/10/27 11:07:45;;;;;;;6.60;2.10;;;;;;;;;;5075604;28;20123;-75
2022/10/27 11:10:13;;;;;;;6.53;2.50;;;;;;;;;;5074722;28;20087;-74
2022/10/27 11:12:42;;;;;;;6.18;2.40;;;;;;;;;;5074431;28;20052;-73
2022/10/27 11:15:23;;;;;;;6.45;2.00;;;;;;;;;;5072858;28;20059;-75
2022/10/27 11:17:51;;;;;;;10.40;2.50;;;;;;;;;;5074820;28;20425;-74
2022/10/27 11:20:19;;;;;;;10.48;2.30;;;;;;;;;;5082377;28;20373;-74
2022/10/27 11:22:47;;;;;;;7.30;2.30;;;;;;;;;;5076495;28;20048;-74
2022/10/27 11:25:33;;;;;;;5.40;2.10;;;;;;;;;;5093245;28;20048;-74
2022/10/27 11:28:04;;;;;;;;;;;;;;;;;;5093834;28;20136;-74
2022/10/27 11:30:31;;;;;;;4.93;1.90;;;;;;;;;;5093485;28;19926;-75
2022/10/27 11:32:57;;;;;;;7.00;2.00;;;;;;;;;;5093199;28;20070;-75
2022/10/27 11:35:25;;;;;;;5.13;2.05;;;;;;;;;;5094241;28;20044;-75
2022/10/27 11:37:58;;;;;;;5.18;1.90;;;;;;;;;;5076261;28;20044;-75
2022/10/27 11:40:28;;;;;;;5.68;2.00;;;;;;;;;;5093891;28;20052;-75
2022/10/27 11:42:57;;;;;;;5.38;1.90;;;;;;;;;;5092952;28;20036;-76
2022/10/27 11:45:26;;;;;;;4.68;2.00;;;;;;;;;;5075947;28;20048;-74
2022/10/27 11:48:10;;;;;;;9.10;2.10;;;;;;;;;;5094023;28;20040;-74
2022/10/27 11:50:43;;;;;;;7.10;1.90;;;;;;;;;;5092540;28;20404;-74
2022/10/27 11:53:09;;;;;;;4.47;2.10;;;;;;;;;;5092603;28;20044;-74
2022/10/27 11:55:43;;;;;;;5.93;2.28;;;;;;;;;;5093773;28;20430;-74
2022/10/27 11:58:20;;;;;;;6.35;2.15;;;;;;;;;;5094056;28;20047;-74
2022/10/27 12:01:16;;;;;;;4.75;1.95;;;;;;;;;;5076110;28;20068;-75
2022/10/27 12:03:48;;;;;;;10.02;3.25;;;;;;;;;;5072899;28;20132;-74
2022/10/27 12:06:28;;;;;;;8.70;2.53;;;;;;;;;;5073446;28;20139;-74
2022/10/27 12:08:57;;;;;;;4.60;1.65;;;;;;;;;;5073273;28;20093;-75
2022/10/27 12:11:23;;;;;;;5.13;2.28;;;;;;;;;;5072052;28;20083;-74
2022/10/27 12:13:52;;;;;;;5.35;1.90;;;;;;;;;;5071601;28;20068;-74
2022/10/27 12:16:24;;;;;;;7.85;1.83;;;;;;;;;;5073272;28;20041;-74
2022/10/27 12:18:56;;;;;;;5.28;1.90;;;;;;;;;;5072340;28;20048;-75
2022/10/27 12:21:32;;;;;;;4.50;2.03;;;;;;;;;;5090299;28;20036;-74
2022/10/27 12:24:21;;;;;;;7.30;2.05;;;;;;;;;;5092984;28;20048;-74
2022/10/27 12:26:55;;;;;;;8.15;2.00;;;;;;;;;;5085234;28;20048;-75
2022/10/27 12:29:22;;;;;;;5.68;1.67;;;;;;;;;;5075082;28;20047;-75
2022/10/27 12:31:53;;;;;;;7.20;1.90;;;;;;;;;;5092506;28;20079;-74
2022/10/27 12:34:21;;;;;;;4.47;1.70;;;;;;;;;;5092826;28;20036;-74
2022/10/27 12:36:51;;;;;;;6.88;2.00;;;;;;;;;;5093227;28;20051;-75
2022/10/27 12:39:17;;;;;;;6.78;2.40;;;;;;;;;;5057556;28;20053;-75
2022/10/27 12:41:49;;;;;;;4.60;2.08;;;;;;;;;;5070238;28;20048;-75
2022/10/27 12:44:21;;;;;;;7.60;1.90;;;;;;;;;;5072570;28;20060;-74
2022/10/27 12:46:47;;;;;;;7.47;2.00;;;;;;;;;;5071817;28;20055;-75
2022/10/27 12:49:22;;;;;;;6.63;1.80;;;;;;;;;;5071318;28;20033;-75
2022/10/27 12:51:48;;;;;;;;;;;;;;;;;;5071814;28;20044;-74
2022/10/27 12:54:53;;;;;;;6.60;1.80;;;;;;;;;;5054879;28;19923;-74
2022/10/27 12:57:45;;;;;;;5.55;1.90;;;;;;;;;;4994420;28;20125;-74
2022/10/27 13:00:12;;;;;;;5.50;1.75;;;;;;;;;;4980343;28;20196;-74
2022/10/27 13:02:44;;;;;;;5.03;1.90;;;;;;;;;;5044390;28;20051;-75
2022/10/27 13:05:29;;;;;;;5.15;1.90;;;;;;;;;;5072303;28;20048;-74
2022/10/27 13:08:09;;;;;;;10.23;2.07;;;;;;;;;;5070896;28;20049;-74
2022/10/27 13:10:42;;;;;;;8.50;1.77;;;;;;;;;;5072198;28;20045;-73
2022/10/27 13:13:27;;;;;;;8.80;1.80;;;;;;;;;;5071984;28;20048;-74
2022/10/27 13:16:09;;;;;;;7.53;2.03;;;;;;;;;;5071828;28;20047;-74
2022/10/27 13:18:35;;;;;;;7.15;2.00;;;;;;;;;;5071757;28;20063;-74
2022/10/27 13:21:04;;;;;;;6.47;1.98;;;;;;;;;;5086417;28;20485;-74
2022/10/27 13:23:45;;;;;;;9.43;1.98;;;;;;;;;;5090815;28;20047;-74
2022/10/27 13:26:16;;;;;;;3.80;1.75;;;;;;;;;;5091908;28;20121;-74
2022/10/27 13:28:48;;;;;;;5.85;1.98;;;;;;;;;;5090694;28;20044;-74
2022/10/27 13:31:16;;;;;;;8.45;2.60;;;;;;;;;;5091836;28;20135;-74